Bridge of Weir, United Kingdom
Current Conditions -  °F | °C
As of 7:50 PM on Sunday 25 Jan 2015 (Local Time) from EGPF Reporting Station
Light Rain Light Rain  
Wind Chill:   Ceiling: 4400
Heat Index:   Visibility: 6mi
Dew Point:   Wind: 13mph
Humidity: 87%   Direction: 270°W
Pressure: 30"   Gusts: NA
Location:  55.85°N, 4.58°W
Report Text: EGPF 251950Z 27011KT 9999 -RA FEW015 SCT026 BKN044 09/07 Q1016
Loading
Personal Weather Stations






























Interactive Weather Map New forecast layout! Learn more

10-Day Weather Forecast

Advertisements
Track Severe Weather on mobile